createdAt,value
2022-12-06T00:01:35.682Z,98126.38
2022-12-06T00:04:06.905Z,98128.14
2022-12-06T00:06:48.125Z,98131.69
2022-12-06T00:09:19.577Z,98133.98
2022-12-06T00:11:48.189Z,98129.90
2022-12-06T00:14:17.539Z,98127.05
2022-12-06T00:16:45.928Z,98131.73
2022-12-06T00:19:19.247Z,98133.08
2022-12-06T00:21:47.623Z,98129.17
2022-12-06T00:24:18.192Z,98132.75
2022-12-06T00:26:47.738Z,98136.02
2022-12-06T00:29:22.735Z,98129.63
2022-12-06T00:31:51.041Z,98121.49
2022-12-06T00:34:19.205Z,98120.06
2022-12-06T00:36:47.907Z,98118.48
2022-12-06T00:39:18.404Z,98113.69
2022-12-06T00:41:46.372Z,98108.73
2022-12-06T00:44:14.455Z,98107.56
2022-12-06T00:46:42.409Z,98111.24
2022-12-06T00:49:10.355Z,98108.27
2022-12-06T00:51:39.594Z,98108.36
2022-12-06T00:54:08.608Z,98111.77
2022-12-06T00:56:37.301Z,98111.52
2022-12-06T00:59:06.125Z,98111.30
2022-12-06T01:01:36.448Z,98112.36
2022-12-06T01:04:07.233Z,98110.98
2022-12-06T01:06:37.950Z,98107.38
2022-12-06T01:09:09.318Z,98104.39
2022-12-06T01:11:37.933Z,98101.29
2022-12-06T01:14:06.491Z,98101.73
2022-12-06T01:16:35.260Z,98098.28
2022-12-06T01:19:05.588Z,98088.66
2022-12-06T01:21:34.142Z,98079.96
2022-12-06T01:24:02.116Z,98072.30
2022-12-06T01:26:33.324Z,98074.40
2022-12-06T01:29:02.524Z,98074.56
2022-12-06T01:31:37.714Z,98081.00
2022-12-06T01:34:14.117Z,98078.74
2022-12-06T01:36:42.461Z,98072.94
2022-12-06T01:39:11.268Z,98077.86
2022-12-06T01:41:40.222Z,98078.77
2022-12-06T01:44:38.983Z,98074.56
2022-12-06T01:47:32.216Z,98072.20
2022-12-06T01:50:18.476Z,98071.94
2022-12-06T01:52:54.399Z,98066.66
2022-12-06T01:55:25.679Z,98067.92
2022-12-06T01:57:58.519Z,98069.08
2022-12-06T02:00:26.796Z,98066.38
2022-12-06T02:03:00.725Z,98068.15
2022-12-06T02:05:31.637Z,98065.50
2022-12-06T02:08:02.256Z,98068.13
2022-12-06T02:10:31.511Z,98070.99
2022-12-06T02:12:59.499Z,98064.80
2022-12-06T02:15:45.055Z,98062.60
2022-12-06T02:18:21.852Z,98056.77
2022-12-06T02:21:06.783Z,98052.17
2022-12-06T02:24:19.253Z,98045.42
2022-12-06T02:27:18.181Z,98036.31
2022-12-06T02:30:18.747Z,98037.80
2022-12-06T02:33:23.428Z,98035.60
2022-12-06T02:36:02.797Z,98034.08
2022-12-06T02:38:43.624Z,98025.51
2022-12-06T02:41:27.583Z,98021.03
2022-12-06T02:44:03.198Z,98023.16
2022-12-06T02:46:34.757Z,98018.17
2022-12-06T02:49:06.723Z,98017.92
2022-12-06T02:51:37.383Z,98019.20
2022-12-06T02:54:08.842Z,98018.79
2022-12-06T02:56:36.824Z,98017.95
2022-12-06T02:59:05.797Z,98013.06
2022-12-06T03:01:41.197Z,98013.98
2022-12-06T03:04:15.311Z,98011.49
2022-12-06T03:06:52.044Z,98007.41
2022-12-06T03:09:49.774Z,98003.15
2022-12-06T03:12:45.874Z,97997.58
2022-12-06T03:15:34.388Z,97996.50
2022-12-06T03:18:15.997Z,97995.41
2022-12-06T03:20:56.560Z,97993.55
2022-12-06T03:23:32.020Z,97987.18
2022-12-06T03:26:02.200Z,97984.31
2022-12-06T03:28:30.831Z,97981.14
2022-12-06T03:31:03.505Z,97976.31
2022-12-06T03:33:33.668Z,97965.65
2022-12-06T03:36:02.471Z,97958.95
2022-12-06T03:38:37.390Z,97965.29
2022-12-06T03:41:07.655Z,97969.33
2022-12-06T03:43:35.728Z,97966.55
2022-12-06T03:46:17.938Z,97960.64
2022-12-06T03:48:54.896Z,97967.48
2022-12-06T03:51:27.281Z,97958.61
2022-12-06T03:53:59.693Z,97956.75
2022-12-06T03:56:28.311Z,97955.73
2022-12-06T03:58:56.341Z,97958.58
2022-12-06T04:01:24.594Z,97953.33
2022-12-06T04:03:52.611Z,97948.62
2022-12-06T04:06:20.543Z,97949.98
2022-12-06T04:08:48.588Z,97946.80
2022-12-06T04:11:16.555Z,97945.64
2022-12-06T04:13:44.596Z,97946.81
2022-12-06T04:16:31.190Z,97947.64
2022-12-06T04:18:59.164Z,97946.34
2022-12-06T04:21:32.718Z,97946.42
2022-12-06T04:24:02.744Z,97946.84
2022-12-06T04:26:30.697Z,97942.71
2022-12-06T04:29:17.095Z,97945.46
2022-12-06T04:32:04.374Z,97942.40
2022-12-06T04:34:51.131Z,97946.44
2022-12-06T04:37:37.990Z,97942.14
2022-12-06T04:40:07.277Z,97935.63
2022-12-06T04:42:53.703Z,97933.61
2022-12-06T04:45:21.780Z,97936.02
2022-12-06T04:47:49.776Z,97937.32
2022-12-06T04:50:17.747Z,97937.56
2022-12-06T04:52:46.317Z,97935.90
2022-12-06T04:55:14.475Z,97934.73
2022-12-06T04:57:42.434Z,97933.48
2022-12-06T05:00:11.407Z,97929.84
2022-12-06T05:02:39.763Z,97928.15
2022-12-06T05:05:08.232Z,97924.30
2022-12-06T05:07:36.500Z,97924.27
2022-12-06T05:10:04.907Z,97921.40
2022-12-06T05:12:32.897Z,97920.78
2022-12-06T05:15:00.827Z,97921.02
2022-12-06T05:17:29.905Z,97923.72
2022-12-06T05:19:58.136Z,97921.31
2022-12-06T05:22:26.259Z,97914.70
2022-12-06T05:24:55.143Z,97913.00
2022-12-06T05:27:24.561Z,97911.16
2022-12-06T05:29:52.561Z,97904.36
2022-12-06T05:32:20.755Z,97901.70
2022-12-06T05:34:49.044Z,97899.90
2022-12-06T05:37:17.220Z,97893.20
2022-12-06T05:39:45.128Z,97887.69
2022-12-06T05:42:20.404Z,97888.17
2022-12-06T05:44:50.393Z,97890.49
2022-12-06T05:47:19.384Z,97881.98
2022-12-06T05:49:47.292Z,97879.23
2022-12-06T05:52:15.244Z,97886.09
2022-12-06T05:54:43.210Z,97886.89
2022-12-06T05:57:11.314Z,97890.11
2022-12-06T05:59:40.509Z,97888.10
2022-12-06T06:02:11.409Z,97891.30
2022-12-06T06:04:39.488Z,97890.06
2022-12-06T06:07:07.437Z,97883.25
2022-12-06T06:09:35.369Z,97875.80
2022-12-06T06:12:06.843Z,97876.38
2022-12-06T06:14:38.119Z,97879.38
2022-12-06T06:17:06.558Z,97874.14
2022-12-06T06:19:36.132Z,97876.17
2022-12-06T06:22:06.281Z,97871.65
2022-12-06T06:24:42.343Z,97868.00
2022-12-06T06:27:14.363Z,97865.09
2022-12-06T06:29:45.505Z,97861.46
2022-12-06T06:32:13.741Z,97864.11
2022-12-06T06:34:42.193Z,97864.48
2022-12-06T06:37:10.968Z,97866.73
2022-12-06T06:39:40.357Z,97867.75
2022-12-06T06:42:08.855Z,97864.82
2022-12-06T06:44:37.163Z,97870.09
2022-12-06T06:47:06.097Z,97870.86
2022-12-06T06:49:34.177Z,97872.59
2022-12-06T06:52:04.090Z,97872.68
2022-12-06T06:54:32.061Z,97870.48
2022-12-06T06:57:03.020Z,97872.04
2022-12-06T06:59:31.281Z,97867.98
2022-12-06T07:01:59.973Z,97862.83
2022-12-06T07:04:28.317Z,97861.63
2022-12-06T07:06:59.669Z,97852.44
2022-12-06T07:09:28.500Z,97850.02
2022-12-06T07:11:57.500Z,97853.80
2022-12-06T07:14:25.446Z,97847.30
2022-12-06T07:16:53.898Z,97835.02
2022-12-06T07:19:22.755Z,97831.80
2022-12-06T07:21:50.922Z,97833.30
2022-12-06T07:24:19.811Z,97837.84
2022-12-06T07:26:47.851Z,97827.24
2022-12-06T07:29:17.484Z,97823.41
2022-12-06T07:31:46.490Z,97822.68
2022-12-06T07:34:14.689Z,97817.92
2022-12-06T07:36:42.752Z,97813.39
2022-12-06T07:39:14.689Z,97808.39
2022-12-06T07:42:03.463Z,97808.84
2022-12-06T07:45:02.846Z,97814.48
2022-12-06T07:47:40.411Z,97808.96
2022-12-06T07:50:17.661Z,97810.95
2022-12-06T07:52:48.938Z,97810.19
2022-12-06T07:55:19.434Z,97804.90
2022-12-06T07:57:48.342Z,97796.48
2022-12-06T08:00:20.889Z,97796.77
2022-12-06T08:02:49.284Z,97799.96
2022-12-06T08:05:17.736Z,97797.05
2022-12-06T08:07:46.126Z,97797.42
2022-12-06T08:10:14.450Z,97798.42
2022-12-06T08:12:44.956Z,97798.58
2022-12-06T08:15:15.412Z,97802.09
2022-12-06T08:17:43.462Z,97798.92
2022-12-06T08:20:13.069Z,97793.98
2022-12-06T08:22:41.351Z,97792.64
2022-12-06T08:25:09.990Z,97791.64
2022-12-06T08:27:38.284Z,97791.20
2022-12-06T08:30:07.205Z,97792.11
2022-12-06T08:32:35.231Z,97789.39
2022-12-06T08:35:04.014Z,97783.04
2022-12-06T08:37:34.375Z,97778.61
2022-12-06T08:40:03.001Z,97778.65
2022-12-06T08:42:31.923Z,97775.11
2022-12-06T08:45:00.192Z,97773.40
2022-12-06T08:47:28.337Z,97774.69
2022-12-06T08:49:58.907Z,97771.19
2022-12-06T08:52:28.962Z,97773.92
2022-12-06T08:54:57.034Z,97781.01
2022-12-06T08:57:25.488Z,97777.13
2022-12-06T08:59:54.528Z,97769.44
2022-12-06T09:02:22.791Z,97766.79
2022-12-06T09:04:52.176Z,97765.10
2022-12-06T09:07:21.265Z,97763.05
2022-12-06T09:09:49.983Z,97762.42
2022-12-06T09:12:18.195Z,97752.02
2022-12-06T09:14:47.027Z,97747.30
2022-12-06T09:17:15.094Z,97748.29
2022-12-06T09:19:43.446Z,97743.36
2022-12-06T09:22:12.081Z,97733.98
2022-12-06T09:24:42.545Z,97721.20
2022-12-06T09:27:11.984Z,97715.36
2022-12-06T09:29:41.077Z,97713.39
2022-12-06T09:32:09.210Z,97715.90
2022-12-06T09:34:39.026Z,97703.31
2022-12-06T09:37:13.188Z,97699.97
2022-12-06T09:39:47.432Z,97692.95
2022-12-06T09:42:35.736Z,97681.05
2022-12-06T09:45:03.674Z,97678.91
2022-12-06T09:47:50.617Z,97676.82
2022-12-06T09:50:28.321Z,97669.96
2022-12-06T09:53:21.650Z,97662.10
2022-12-06T09:56:12.929Z,97656.17
2022-12-06T09:59:06.300Z,97654.42
2022-12-06T10:01:37.340Z,97652.35
2022-12-06T10:04:27.012Z,97648.96
2022-12-06T10:07:25.808Z,97647.05
2022-12-06T10:10:21.220Z,97643.20
2022-12-06T10:13:13.528Z,97637.88
2022-12-06T10:15:59.495Z,97631.61
2022-12-06T10:18:58.079Z,97627.33
2022-12-06T10:21:50.182Z,97625.33
2022-12-06T10:24:41.173Z,97619.48
2022-12-06T10:27:28.527Z,97613.47
2022-12-06T10:30:12.227Z,97604.71
2022-12-06T10:32:43.241Z,97603.83
2022-12-06T10:35:44.245Z,97599.27
2022-12-06T10:38:25.135Z,97590.05
2022-12-06T10:41:02.003Z,97584.91
2022-12-06T10:43:36.545Z,97583.94
2022-12-06T10:46:43.738Z,97574.75
2022-12-06T10:49:32.491Z,97566.36
2022-12-06T10:52:35.007Z,97565.83
2022-12-06T10:55:10.391Z,97568.89
2022-12-06T10:58:10.140Z,97572.16
2022-12-06T11:00:50.658Z,97562.02
2022-12-06T11:03:23.438Z,97559.53
2022-12-06T11:06:17.781Z,97559.98
2022-12-06T11:09:00.103Z,97564.02
2022-12-06T11:11:37.094Z,97564.75
2022-12-06T11:14:30.548Z,97558.97
2022-12-06T11:17:22.010Z,97561.32
2022-12-06T11:19:54.858Z,97565.16
2022-12-06T11:22:46.710Z,97567.98
2022-12-06T11:25:25.936Z,97555.57
2022-12-06T11:28:44.136Z,97552.77
2022-12-06T11:31:30.956Z,97560.07
2022-12-06T11:34:01.345Z,97566.01
2022-12-06T11:36:31.101Z,97568.52
2022-12-06T11:39:00.462Z,97563.36
2022-12-06T11:41:34.327Z,97563.58
2022-12-06T11:44:03.245Z,97561.75
2022-12-06T11:46:31.489Z,97557.30
2022-12-06T11:49:24.438Z,97559.73
2022-12-06T11:51:53.683Z,97554.18
2022-12-06T11:55:04.119Z,97547.14
2022-12-06T11:58:23.990Z,97544.46
2022-12-06T12:00:56.112Z,97547.63
2022-12-06T12:03:35.557Z,97540.86
2022-12-06T12:06:19.982Z,97540.85
2022-12-06T12:09:14.372Z,97542.55
2022-12-06T12:11:43.305Z,97541.93
2022-12-06T12:14:27.248Z,97532.38
2022-12-06T12:17:03.300Z,97537.65
2022-12-06T12:19:44.510Z,97534.20
2022-12-06T12:22:32.325Z,97533.87
2022-12-06T12:25:19.561Z,97537.59
2022-12-06T12:27:53.076Z,97535.24
2022-12-06T12:30:24.504Z,97538.07
2022-12-06T12:33:14.165Z,97534.33
2022-12-06T12:35:52.364Z,97534.87
2022-12-06T12:38:28.913Z,97528.95
2022-12-06T12:41:19.555Z,97520.95
2022-12-06T12:44:28.521Z,97513.35
2022-12-06T12:46:54.517Z,97518.27
2022-12-06T12:49:28.712Z,97522.00
2022-12-06T12:51:57.444Z,97521.19
2022-12-06T12:54:33.096Z,97523.08
2022-12-06T12:57:07.345Z,97516.77
2022-12-06T12:59:40.480Z,97504.19
2022-12-06T13:02:23.065Z,97496.80
2022-12-06T13:05:24.915Z,97493.10
2022-12-06T13:07:53.226Z,97503.08
2022-12-06T13:10:32.386Z,97500.76
2022-12-06T13:13:17.624Z,97487.27
2022-12-06T13:15:53.444Z,97477.58
2022-12-06T13:18:27.394Z,97479.81
2022-12-06T13:21:02.676Z,97480.63
2022-12-06T13:23:39.088Z,97483.82
2022-12-06T13:26:26.732Z,97488.51
2022-12-06T13:29:04.262Z,97484.96
2022-12-06T13:31:37.066Z,97484.27
2022-12-06T13:34:37.601Z,97493.14
2022-12-06T13:37:30.526Z,97500.69
2022-12-06T13:39:59.299Z,97494.73
2022-12-06T13:42:37.545Z,97495.20
2022-12-06T13:45:26.659Z,97497.96
2022-12-06T13:47:54.674Z,97499.19
2022-12-06T13:50:23.657Z,97500.88
2022-12-06T13:52:52.125Z,97494.58
2022-12-06T13:55:26.302Z,97495.10
2022-12-06T13:57:55.457Z,97500.77
2022-12-06T14:00:34.862Z,97500.41
2022-12-06T14:03:24.151Z,97500.05
2022-12-06T14:06:15.536Z,97501.78
2022-12-06T14:08:57.651Z,97497.48
2022-12-06T14:11:35.148Z,97500.58
2022-12-06T14:14:24.425Z,97501.29
2022-12-06T14:16:59.281Z,97494.45
2022-12-06T14:19:47.491Z,97495.95
2022-12-06T14:22:31.835Z,97501.38
2022-12-06T14:25:19.307Z,97505.09
2022-12-06T14:27:51.430Z,97505.73
2022-12-06T14:30:26.256Z,97499.20
2022-12-06T14:32:55.838Z,97497.89
2022-12-06T14:35:31.035Z,97497.06
2022-12-06T14:38:03.889Z,97491.05
2022-12-06T14:41:03.150Z,97499.25
2022-12-06T14:43:33.415Z,97509.73
2022-12-06T14:46:05.668Z,97510.20
2022-12-06T14:48:53.194Z,97505.20
2022-12-06T14:51:27.564Z,97497.98
2022-12-06T14:53:56.042Z,97498.83
2022-12-06T14:56:35.429Z,97497.05
2022-12-06T14:59:12.047Z,97493.64
2022-12-06T15:01:52.069Z,97485.81
2022-12-06T15:04:35.286Z,97489.34
2022-12-06T15:07:04.993Z,97487.24
2022-12-06T15:09:49.279Z,97483.23
2022-12-06T15:12:46.807Z,97481.35
2022-12-06T15:15:36.524Z,97479.55
2022-12-06T15:18:12.045Z,97482.45
2022-12-06T15:20:40.525Z,97477.77
2022-12-06T15:24:01.145Z,97476.48
2022-12-06T15:26:29.865Z,97477.84
2022-12-06T15:28:59.869Z,97477.48
2022-12-06T15:31:30.363Z,97478.13
2022-12-06T15:34:00.144Z,97479.30
2022-12-06T15:36:34.007Z,97488.52
2022-12-06T15:39:02.064Z,97489.25
2022-12-06T15:41:30.322Z,97497.29
2022-12-06T15:43:58.337Z,97501.55
2022-12-06T15:46:30.214Z,97505.31
2022-12-06T15:49:01.837Z,97507.65
2022-12-06T15:51:30.353Z,97506.37
2022-12-06T15:54:00.383Z,97505.89
2022-12-06T15:56:30.247Z,97491.45
2022-12-06T15:58:58.441Z,97475.11
2022-12-06T16:01:31.758Z,97470.11
2022-12-06T16:04:00.619Z,97484.10
2022-12-06T16:06:29.501Z,97493.87
2022-12-06T16:08:59.512Z,97486.72
2022-12-06T16:11:29.851Z,97476.68
2022-12-06T16:13:57.989Z,97483.61
2022-12-06T16:16:27.294Z,97491.71
2022-12-06T16:18:55.366Z,97493.05
2022-12-06T16:21:24.208Z,97490.52
2022-12-06T16:24:16.473Z,97484.73
2022-12-06T16:26:46.496Z,97483.27
2022-12-06T16:29:25.036Z,97479.42
2022-12-06T16:31:56.431Z,97489.23
2022-12-06T16:34:25.835Z,97497.52
2022-12-06T16:36:53.891Z,97504.48
2022-12-06T16:39:21.930Z,97494.46
2022-12-06T16:41:52.340Z,97491.41
2022-12-06T16:44:21.581Z,97489.74
2022-12-06T16:46:49.799Z,97483.14
2022-12-06T16:49:45.674Z,97493.67
2022-12-06T16:52:15.646Z,97488.42
2022-12-06T16:54:44.969Z,97491.05
2022-12-06T16:57:13.670Z,97496.52
2022-12-06T16:59:43.237Z,97500.70
2022-12-06T17:02:30.206Z,97500.31
2022-12-06T17:05:06.114Z,97498.20
2022-12-06T17:07:36.164Z,97495.60
2022-12-06T17:10:06.647Z,97485.96
2022-12-06T17:12:34.953Z,97484.89
2022-12-06T17:15:03.421Z,97488.65
2022-12-06T17:17:31.796Z,97491.09
2022-12-06T17:20:00.315Z,97492.77
2022-12-06T17:22:28.753Z,97492.85
2022-12-06T17:24:56.835Z,97488.27
2022-12-06T17:27:25.088Z,97492.46
2022-12-06T17:29:54.293Z,97498.55
2022-12-06T17:32:22.404Z,97503.50
2022-12-06T17:34:50.578Z,97499.70
2022-12-06T17:37:19.707Z,97496.73
2022-12-06T17:39:50.109Z,97504.80
2022-12-06T17:42:38.960Z,97504.96
2022-12-06T17:45:07.656Z,97499.29
2022-12-06T17:47:35.810Z,97496.65
2022-12-06T17:50:05.613Z,97496.94
2022-12-06T17:52:33.893Z,97496.63
2022-12-06T17:55:02.657Z,97494.08
2022-12-06T17:57:31.242Z,97492.89
2022-12-06T17:59:59.181Z,97496.79
2022-12-06T18:02:28.036Z,97501.06
2022-12-06T18:04:59.953Z,97505.76
2022-12-06T18:07:28.650Z,97499.79
2022-12-06T18:09:58.378Z,97495.70
2022-12-06T18:12:29.287Z,97496.92
2022-12-06T18:15:00.540Z,97497.23
2022-12-06T18:17:31.182Z,97499.52
2022-12-06T18:20:00.472Z,97508.06
2022-12-06T18:22:28.692Z,97515.55
2022-12-06T18:24:56.807Z,97514.80
2022-12-06T18:27:24.834Z,97517.02
2022-12-06T18:29:53.405Z,97511.36
2022-12-06T18:32:21.404Z,97507.36
2022-12-06T18:34:49.346Z,97511.55
2022-12-06T18:37:17.239Z,97513.34
2022-12-06T18:39:45.644Z,97516.11
2022-12-06T18:42:14.396Z,97508.41
2022-12-06T18:44:42.320Z,97505.23
2022-12-06T18:47:10.814Z,97500.29
2022-12-06T18:49:39.424Z,97497.73
2022-12-06T18:52:07.500Z,97496.42
2022-12-06T18:54:36.837Z,97492.97
2022-12-06T18:57:04.872Z,97496.07
2022-12-06T18:59:33.244Z,97497.91
2022-12-06T19:02:02.370Z,97492.88
2022-12-06T19:04:30.891Z,97496.67
2022-12-06T19:06:58.862Z,97504.55
2022-12-06T19:09:26.927Z,97504.43
2022-12-06T19:11:55.081Z,97502.22
2022-12-06T19:14:25.024Z,97504.38
2022-12-06T19:16:53.243Z,97505.08
2022-12-06T19:19:26.978Z,97501.13
2022-12-06T19:21:57.327Z,97502.80
2022-12-06T19:24:26.884Z,97504.10
2022-12-06T19:27:00.216Z,97500.47
2022-12-06T19:29:29.663Z,97503.33
2022-12-06T19:31:57.844Z,97508.29
2022-12-06T19:34:27.682Z,97511.36
2022-12-06T19:36:58.119Z,97508.36
2022-12-06T19:39:26.997Z,97508.20
2022-12-06T19:42:13.745Z,97508.27
2022-12-06T19:44:44.738Z,97509.74
2022-12-06T19:47:13.858Z,97509.23
2022-12-06T19:49:42.591Z,97506.22
2022-12-06T19:52:13.580Z,97503.95
2022-12-06T19:54:42.380Z,97505.83
2022-12-06T19:57:12.115Z,97503.29
2022-12-06T19:59:40.109Z,97497.66
2022-12-06T20:02:12.605Z,97492.73
2022-12-06T20:04:42.158Z,97489.08
2022-12-06T20:07:10.907Z,97489.70
2022-12-06T20:09:39.815Z,97488.69
2022-12-06T20:12:09.449Z,97484.34
2022-12-06T20:14:46.143Z,97486.95
2022-12-06T20:17:20.669Z,97490.07
2022-12-06T20:19:51.544Z,97498.30
2022-12-06T20:22:19.947Z,97495.92
2022-12-06T20:24:48.441Z,97495.41
2022-12-06T20:27:18.362Z,97489.52
2022-12-06T20:29:46.629Z,97486.89
2022-12-06T20:32:16.633Z,97484.77
2022-12-06T20:34:45.872Z,97486.42
2022-12-06T20:37:13.759Z,97486.63
2022-12-06T20:39:42.247Z,97487.50
2022-12-06T20:42:10.282Z,97489.40
2022-12-06T20:44:38.384Z,97499.60
2022-12-06T20:47:06.448Z,97503.64
2022-12-06T20:49:34.667Z,97503.41
2022-12-06T20:52:03.840Z,97498.13
2022-12-06T20:54:32.459Z,97495.04
2022-12-06T20:57:08.105Z,97493.79
2022-12-06T20:59:37.024Z,97495.56
2022-12-06T21:02:06.725Z,97498.02
2022-12-06T21:04:36.968Z,97502.56
2022-12-06T21:07:05.658Z,97509.64
2022-12-06T21:09:33.708Z,97510.48
2022-12-06T21:12:02.356Z,97513.98
2022-12-06T21:14:30.815Z,97514.70
2022-12-06T21:16:59.117Z,97517.91
2022-12-06T21:19:28.134Z,97516.18
2022-12-06T21:22:01.119Z,97516.20
2022-12-06T21:24:31.278Z,97515.02
2022-12-06T21:26:59.635Z,97522.33
2022-12-06T21:29:30.995Z,97516.10
2022-12-06T21:32:02.497Z,97517.26
2022-12-06T21:34:31.676Z,97515.84
2022-12-06T21:37:00.465Z,97516.40
2022-12-06T21:39:28.632Z,97520.73
2022-12-06T21:41:57.422Z,97515.74
2022-12-06T21:44:25.480Z,97515.61
2022-12-06T21:46:55.938Z,97510.89
2022-12-06T21:49:25.271Z,97506.75
2022-12-06T21:52:01.036Z,97500.12
2022-12-06T21:54:31.395Z,97502.02
2022-12-06T21:57:00.427Z,97505.36
2022-12-06T21:59:28.855Z,97508.52
2022-12-06T22:01:57.572Z,97516.94
2022-12-06T22:04:26.174Z,97515.45
2022-12-06T22:06:54.658Z,97512.90
2022-12-06T22:09:23.031Z,97509.95
2022-12-06T22:11:51.148Z,97507.90
2022-12-06T22:14:19.408Z,97512.50
2022-12-06T22:16:50.572Z,97509.36
2022-12-06T22:19:18.750Z,97513.16
2022-12-06T22:21:47.941Z,97506.27
2022-12-06T22:24:16.150Z,97509.58
2022-12-06T22:26:44.603Z,97515.27
2022-12-06T22:29:12.876Z,97515.83
2022-12-06T22:31:41.004Z,97513.64
2022-12-06T22:34:09.860Z,97514.91
2022-12-06T22:36:37.977Z,97507.20
2022-12-06T22:39:07.937Z,97510.10
2022-12-06T22:41:35.872Z,97507.67
2022-12-06T22:44:07.209Z,97507.06
2022-12-06T22:46:36.787Z,97511.04
2022-12-06T22:49:06.476Z,97508.66
2022-12-06T22:51:36.947Z,97506.52
2022-12-06T22:54:09.301Z,97515.11
2022-12-06T22:56:39.744Z,97518.25
2022-12-06T22:59:09.564Z,97524.48
2022-12-06T23:01:39.495Z,97529.20
2022-12-06T23:04:08.114Z,97525.52
2022-12-06T23:06:36.866Z,97529.48
2022-12-06T23:09:06.810Z,97534.24
2022-12-06T23:11:36.508Z,97533.25
2022-12-06T23:14:04.764Z,97539.67
2022-12-06T23:16:33.212Z,97541.34
2022-12-06T23:19:03.581Z,97543.08
2022-12-06T23:21:35.250Z,97544.36
2022-12-06T23:24:09.812Z,97541.08
2022-12-06T23:26:45.607Z,97544.89
2022-12-06T23:29:15.103Z,97544.52
2022-12-06T23:31:45.132Z,97543.73
2022-12-06T23:34:22.754Z,97544.85
2022-12-06T23:36:50.783Z,97539.65
2022-12-06T23:39:19.590Z,97539.39
2022-12-06T23:41:47.923Z,97539.12
2022-12-06T23:44:15.909Z,97541.77
2022-12-06T23:46:45.725Z,97546.02
2022-12-06T23:49:19.751Z,97544.04
2022-12-06T23:51:48.679Z,97546.88
2022-12-06T23:54:17.774Z,97542.60
2022-12-06T23:56:46.981Z,97539.05
2022-12-06T23:59:16.405Z,97538.27
